sensor_id;sensor_type;location;lat;lon;timestamp;temperature;humidity
20432;DHT22;10375;49.136;10.366;2022-11-30T00:01:16;4.90;99.90
20432;DHT22;10375;49.136;10.366;2022-11-30T00:03:43;4.90;99.90
20432;DHT22;10375;49.136;10.366;2022-11-30T00:06:13;4.90;99.90
20432;DHT22;10375;49.136;10.366;2022-11-30T00:08:41;4.90;99.90
20432;DHT22;10375;49.136;10.366;2022-11-30T00:11:12;4.90;99.90
20432;DHT22;10375;49.136;10.366;2022-11-30T00:13:39;4.90;99.90
20432;DHT22;10375;49.136;10.366;2022-11-30T00:16:07;4.90;99.90
20432;DHT22;10375;49.136;10.366;2022-11-30T00:18:34;4.90;99.90
20432;DHT22;10375;49.136;10.366;2022-11-30T00:21:04;4.90;99.90
20432;DHT22;10375;49.136;10.366;2022-11-30T00:23:32;4.90;99.90
20432;DHT22;10375;49.136;10.366;2022-11-30T00:26:04;4.90;99.90
20432;DHT22;10375;49.136;10.366;2022-11-30T00:28:32;4.90;99.90
20432;DHT22;10375;49.136;10.366;2022-11-30T00:31:01;4.90;99.90
20432;DHT22;10375;49.136;10.366;2022-11-30T00:33:31;4.90;99.90
20432;DHT22;10375;49.136;10.366;2022-11-30T00:36:01;4.90;99.90
20432;DHT22;10375;49.136;10.366;2022-11-30T00:38:30;4.90;99.90
20432;DHT22;10375;49.136;10.366;2022-11-30T00:40:58;4.90;99.90
20432;DHT22;10375;49.136;10.366;2022-11-30T00:43:25;4.90;99.90
20432;DHT22;10375;49.136;10.366;2022-11-30T00:45:53;4.90;99.90
20432;DHT22;10375;49.136;10.366;2022-11-30T00:48:20;4.90;99.90
20432;DHT22;10375;49.136;10.366;2022-11-30T00:50:50;5.00;99.90
20432;DHT22;10375;49.136;10.366;2022-11-30T00:53:18;5.00;99.90
20432;DHT22;10375;49.136;10.366;2022-11-30T00:55:46;4.90;99.90
20432;DHT22;10375;49.136;10.366;2022-11-30T00:58:14;4.90;99.90
20432;DHT22;10375;49.136;10.366;2022-11-30T01:00:41;4.80;99.90
20432;DHT22;10375;49.136;10.366;2022-11-30T01:03:08;4.90;99.90
20432;DHT22;10375;49.136;10.366;2022-11-30T01:05:36;4.90;99.90
20432;DHT22;10375;49.136;10.366;2022-11-30T01:08:05;4.80;99.90
20432;DHT22;10375;49.136;10.366;2022-11-30T01:10:38;4.80;99.90
20432;DHT22;10375;49.136;10.366;2022-11-30T01:13:06;4.80;99.90
20432;DHT22;10375;49.136;10.366;2022-11-30T01:15:42;4.80;99.90
20432;DHT22;10375;49.136;10.366;2022-11-30T01:18:09;4.80;99.90
20432;DHT22;10375;49.136;10.366;2022-11-30T01:20:41;4.80;99.90
20432;DHT22;10375;49.136;10.366;2022-11-30T01:23:08;4.80;99.90
20432;DHT22;10375;49.136;10.366;2022-11-30T01:25:36;4.80;99.90
20432;DHT22;10375;49.136;10.366;2022-11-30T01:28:03;4.80;99.90
20432;DHT22;10375;49.136;10.366;2022-11-30T01:30:30;4.80;99.90
20432;DHT22;10375;49.136;10.366;2022-11-30T01:33:01;4.70;99.90
20432;DHT22;10375;49.136;10.366;2022-11-30T01:35:28;4.70;99.90
20432;DHT22;10375;49.136;10.366;2022-11-30T01:37:56;4.70;99.90
20432;DHT22;10375;49.136;10.366;2022-11-30T01:40:23;4.70;99.90
20432;DHT22;10375;49.136;10.366;2022-11-30T01:42:50;4.60;99.90
20432;DHT22;10375;49.136;10.366;2022-11-30T01:45:17;4.70;99.90
20432;DHT22;10375;49.136;10.366;2022-11-30T01:47:47;4.70;99.90
20432;DHT22;10375;49.136;10.366;2022-11-30T01:50:22;4.70;99.90
20432;DHT22;10375;49.136;10.366;2022-11-30T01:52:54;4.70;99.90
20432;DHT22;10375;49.136;10.366;2022-11-30T01:55:40;4.60;99.90
20432;DHT22;10375;49.136;10.366;2022-11-30T01:58:15;4.60;99.90
20432;DHT22;10375;49.136;10.366;2022-11-30T02:00:46;4.60;99.90
20432;DHT22;10375;49.136;10.366;2022-11-30T02:03:16;4.60;99.90
20432;DHT22;10375;49.136;10.366;2022-11-30T02:05:47;4.60;99.90
20432;DHT22;10375;49.136;10.366;2022-11-30T02:08:15;4.60;99.90
20432;DHT22;10375;49.136;10.366;2022-11-30T02:10:44;4.50;99.90
20432;DHT22;10375;49.136;10.366;2022-11-30T02:29:32;4.50;99.90
20432;DHT22;10375;49.136;10.366;2022-11-30T02:32:05;4.60;99.90
20432;DHT22;10375;49.136;10.366;2022-11-30T02:34:35;4.50;99.90
20432;DHT22;10375;49.136;10.366;2022-11-30T02:37:05;4.50;99.90
20432;DHT22;10375;49.136;10.366;2022-11-30T02:39:34;4.60;99.90
20432;DHT22;10375;49.136;10.366;2022-11-30T02:42:01;4.60;99.90
20432;DHT22;10375;49.136;10.366;2022-11-30T02:44:28;4.60;99.90
20432;DHT22;10375;49.136;10.366;2022-11-30T02:52:08;4.60;99.90
20432;DHT22;10375;49.136;10.366;2022-11-30T02:54:36;4.60;99.90
20432;DHT22;10375;49.136;10.366;2022-11-30T02:57:04;4.60;99.90
20432;DHT22;10375;49.136;10.366;2022-11-30T02:59:31;4.60;99.90
20432;DHT22;10375;49.136;10.366;2022-11-30T03:01:58;4.60;99.90
20432;DHT22;10375;49.136;10.366;2022-11-30T03:04:25;4.60;99.90
20432;DHT22;10375;49.136;10.366;2022-11-30T03:06:52;4.50;99.90
20432;DHT22;10375;49.136;10.366;2022-11-30T03:09:19;4.50;99.90
20432;DHT22;10375;49.136;10.366;2022-11-30T03:11:46;4.50;99.90
20432;DHT22;10375;49.136;10.366;2022-11-30T03:14:13;4.50;99.90
20432;DHT22;10375;49.136;10.366;2022-11-30T03:16:40;4.50;99.90
20432;DHT22;10375;49.136;10.366;2022-11-30T03:19:07;4.50;99.90
20432;DHT22;10375;49.136;10.366;2022-11-30T03:21:34;4.50;99.90
20432;DHT22;10375;49.136;10.366;2022-11-30T03:24:01;4.50;99.90
20432;DHT22;10375;49.136;10.366;2022-11-30T03:26:28;4.50;99.90
20432;DHT22;10375;49.136;10.366;2022-11-30T03:28:55;4.60;99.90
20432;DHT22;10375;49.136;10.366;2022-11-30T03:31:22;4.60;99.90
20432;DHT22;10375;49.136;10.366;2022-11-30T03:33:49;4.60;99.90
20432;DHT22;10375;49.136;10.366;2022-11-30T03:36:16;4.60;99.90
20432;DHT22;10375;49.136;10.366;2022-11-30T03:38:43;4.60;99.90
20432;DHT22;10375;49.136;10.366;2022-11-30T03:41:13;4.50;99.90
20432;DHT22;10375;49.136;10.366;2022-11-30T03:43:43;4.50;99.90
20432;DHT22;10375;49.136;10.366;2022-11-30T03:46:11;4.60;99.90
20432;DHT22;10375;49.136;10.366;2022-11-30T03:48:39;4.50;99.90
20432;DHT22;10375;49.136;10.366;2022-11-30T03:51:10;4.60;99.90
20432;DHT22;10375;49.136;10.366;2022-11-30T03:53:38;4.60;99.90
20432;DHT22;10375;49.136;10.366;2022-11-30T03:56:07;4.60;99.90
20432;DHT22;10375;49.136;10.366;2022-11-30T03:58:35;4.60;99.90
20432;DHT22;10375;49.136;10.366;2022-11-30T04:01:08;4.60;99.90
20432;DHT22;10375;49.136;10.366;2022-11-30T04:03:36;4.60;99.90
20432;DHT22;10375;49.136;10.366;2022-11-30T04:06:05;4.70;99.90
20432;DHT22;10375;49.136;10.366;2022-11-30T04:08:33;4.70;99.90
20432;DHT22;10375;49.136;10.366;2022-11-30T04:11:01;4.70;99.90
20432;DHT22;10375;49.136;10.366;2022-11-30T04:13:29;4.70;99.90
20432;DHT22;10375;49.136;10.366;2022-11-30T04:15:57;4.70;99.90
20432;DHT22;10375;49.136;10.366;2022-11-30T04:18:26;4.70;99.90
20432;DHT22;10375;49.136;10.366;2022-11-30T04:20:55;4.60;99.90
20432;DHT22;10375;49.136;10.366;2022-11-30T04:23:23;4.60;99.90
20432;DHT22;10375;49.136;10.366;2022-11-30T04:25:50;4.50;99.90
20432;DHT22;10375;49.136;10.366;2022-11-30T04:28:18;4.60;99.90
20432;DHT22;10375;49.136;10.366;2022-11-30T04:30:45;4.60;99.90
20432;DHT22;10375;49.136;10.366;2022-11-30T04:33:14;4.60;99.90
20432;DHT22;10375;49.136;10.366;2022-11-30T04:35:47;4.60;99.90
20432;DHT22;10375;49.136;10.366;2022-11-30T04:38:14;4.70;99.90
20432;DHT22;10375;49.136;10.366;2022-11-30T04:40:42;4.60;99.90
20432;DHT22;10375;49.136;10.366;2022-11-30T04:43:10;4.60;99.90
20432;DHT22;10375;49.136;10.366;2022-11-30T04:45:38;4.60;99.90
20432;DHT22;10375;49.136;10.366;2022-11-30T04:48:05;4.60;99.90
20432;DHT22;10375;49.136;10.366;2022-11-30T04:50:33;4.60;99.90
20432;DHT22;10375;49.136;10.366;2022-11-30T04:53:00;4.60;99.90
20432;DHT22;10375;49.136;10.366;2022-11-30T04:55:28;4.60;99.90
20432;DHT22;10375;49.136;10.366;2022-11-30T04:57:55;4.60;99.90
20432;DHT22;10375;49.136;10.366;2022-11-30T05:00:22;4.60;99.90
20432;DHT22;10375;49.136;10.366;2022-11-30T05:02:49;4.60;99.90
20432;DHT22;10375;49.136;10.366;2022-11-30T05:05:19;4.60;99.90
20432;DHT22;10375;49.136;10.366;2022-11-30T05:07:56;4.60;99.90
20432;DHT22;10375;49.136;10.366;2022-11-30T05:10:24;4.60;99.90
20432;DHT22;10375;49.136;10.366;2022-11-30T05:12:52;4.60;99.90
20432;DHT22;10375;49.136;10.366;2022-11-30T05:15:19;4.60;99.90
20432;DHT22;10375;49.136;10.366;2022-11-30T05:17:46;4.60;99.90
20432;DHT22;10375;49.136;10.366;2022-11-30T05:20:13;4.60;99.90
20432;DHT22;10375;49.136;10.366;2022-11-30T05:22:41;4.60;99.90
20432;DHT22;10375;49.136;10.366;2022-11-30T05:25:08;4.60;99.90
20432;DHT22;10375;49.136;10.366;2022-11-30T05:27:36;4.60;99.90
20432;DHT22;10375;49.136;10.366;2022-11-30T05:30:03;4.60;99.90
20432;DHT22;10375;49.136;10.366;2022-11-30T05:32:31;4.60;99.90
20432;DHT22;10375;49.136;10.366;2022-11-30T05:34:58;4.60;99.90
20432;DHT22;10375;49.136;10.366;2022-11-30T05:37:25;4.70;99.90
20432;DHT22;10375;49.136;10.366;2022-11-30T05:39:52;4.70;99.90
20432;DHT22;10375;49.136;10.366;2022-11-30T05:42:20;4.60;99.90
20432;DHT22;10375;49.136;10.366;2022-11-30T05:44:47;4.70;99.90
20432;DHT22;10375;49.136;10.366;2022-11-30T05:47:14;4.60;99.90
20432;DHT22;10375;49.136;10.366;2022-11-30T05:49:42;4.70;99.90
20432;DHT22;10375;49.136;10.366;2022-11-30T05:52:09;4.70;99.90
20432;DHT22;10375;49.136;10.366;2022-11-30T05:54:36;4.70;99.90
20432;DHT22;10375;49.136;10.366;2022-11-30T05:57:03;4.70;99.90
20432;DHT22;10375;49.136;10.366;2022-11-30T05:59:31;4.70;99.90
20432;DHT22;10375;49.136;10.366;2022-11-30T06:01:58;4.70;99.90
20432;DHT22;10375;49.136;10.366;2022-11-30T06:04:25;4.70;99.90
20432;DHT22;10375;49.136;10.366;2022-11-30T06:06:52;4.60;99.90
20432;DHT22;10375;49.136;10.366;2022-11-30T06:09:22;4.60;99.90
20432;DHT22;10375;49.136;10.366;2022-11-30T06:11:49;4.60;99.90
20432;DHT22;10375;49.136;10.366;2022-11-30T06:14:16;4.60;99.90
20432;DHT22;10375;49.136;10.366;2022-11-30T06:16:43;4.70;99.90
20432;DHT22;10375;49.136;10.366;2022-11-30T06:19:10;4.60;99.90
20432;DHT22;10375;49.136;10.366;2022-11-30T06:21:38;4.60;99.90
20432;DHT22;10375;49.136;10.366;2022-11-30T06:24:05;4.70;99.90
20432;DHT22;10375;49.136;10.366;2022-11-30T06:26:32;4.60;99.90
20432;DHT22;10375;49.136;10.366;2022-11-30T06:28:59;4.60;99.90
20432;DHT22;10375;49.136;10.366;2022-11-30T06:31:26;4.60;99.90
20432;DHT22;10375;49.136;10.366;2022-11-30T06:33:57;4.60;99.90
20432;DHT22;10375;49.136;10.366;2022-11-30T06:36:24;4.60;99.90
20432;DHT22;10375;49.136;10.366;2022-11-30T06:38:58;4.70;99.90
20432;DHT22;10375;49.136;10.366;2022-11-30T06:41:26;4.70;99.90
20432;DHT22;10375;49.136;10.366;2022-11-30T06:43:53;4.70;99.90
20432;DHT22;10375;49.136;10.366;2022-11-30T06:46:20;4.70;99.90
20432;DHT22;10375;49.136;10.366;2022-11-30T06:48:48;4.70;99.90
20432;DHT22;10375;49.136;10.366;2022-11-30T06:51:17;4.70;99.90
20432;DHT22;10375;49.136;10.366;2022-11-30T06:53:45;4.70;99.90
20432;DHT22;10375;49.136;10.366;2022-11-30T06:56:12;4.70;99.90
20432;DHT22;10375;49.136;10.366;2022-11-30T06:58:40;4.70;99.90
20432;DHT22;10375;49.136;10.366;2022-11-30T07:01:09;4.70;99.90
20432;DHT22;10375;49.136;10.366;2022-11-30T07:03:37;4.70;99.90
20432;DHT22;10375;49.136;10.366;2022-11-30T07:06:06;4.70;99.90
20432;DHT22;10375;49.136;10.366;2022-11-30T07:08:34;4.70;99.90
20432;DHT22;10375;49.136;10.366;2022-11-30T07:11:00;4.70;99.90
20432;DHT22;10375;49.136;10.366;2022-11-30T07:13:27;4.80;99.90
20432;DHT22;10375;49.136;10.366;2022-11-30T07:15:55;4.80;99.90
20432;DHT22;10375;49.136;10.366;2022-11-30T07:18:23;4.80;99.90
20432;DHT22;10375;49.136;10.366;2022-11-30T07:21:01;4.90;99.90
20432;DHT22;10375;49.136;10.366;2022-11-30T07:23:28;4.90;99.90
20432;DHT22;10375;49.136;10.366;2022-11-30T07:26:22;4.90;99.90
20432;DHT22;10375;49.136;10.366;2022-11-30T07:28:50;4.90;99.90
20432;DHT22;10375;49.136;10.366;2022-11-30T07:31:26;4.90;99.90
20432;DHT22;10375;49.136;10.366;2022-11-30T07:33:54;4.90;99.90
20432;DHT22;10375;49.136;10.366;2022-11-30T07:36:23;4.90;99.90
20432;DHT22;10375;49.136;10.366;2022-11-30T07:38:51;4.90;99.90
20432;DHT22;10375;49.136;10.366;2022-11-30T07:41:18;4.90;99.90
20432;DHT22;10375;49.136;10.366;2022-11-30T07:43:45;5.00;99.90
20432;DHT22;10375;49.136;10.366;2022-11-30T07:46:13;5.00;99.90
20432;DHT22;10375;49.136;10.366;2022-11-30T07:48:42;5.00;99.90
20432;DHT22;10375;49.136;10.366;2022-11-30T07:51:15;5.10;99.90
20432;DHT22;10375;49.136;10.366;2022-11-30T07:53:42;5.10;99.90
20432;DHT22;10375;49.136;10.366;2022-11-30T07:56:12;5.10;99.90
20432;DHT22;10375;49.136;10.366;2022-11-30T07:58:40;5.10;99.90
20432;DHT22;10375;49.136;10.366;2022-11-30T08:01:10;5.10;99.90
20432;DHT22;10375;49.136;10.366;2022-11-30T08:03:38;5.10;99.90
20432;DHT22;10375;49.136;10.366;2022-11-30T08:06:08;5.10;99.90
20432;DHT22;10375;49.136;10.366;2022-11-30T08:08:37;5.10;99.90
20432;DHT22;10375;49.136;10.366;2022-11-30T08:11:06;5.10;99.90
20432;DHT22;10375;49.136;10.366;2022-11-30T08:13:34;5.00;99.90
20432;DHT22;10375;49.136;10.366;2022-11-30T08:16:02;5.00;99.90
20432;DHT22;10375;49.136;10.366;2022-11-30T08:18:29;5.00;99.90
20432;DHT22;10375;49.136;10.366;2022-11-30T08:21:02;5.00;99.90
20432;DHT22;10375;49.136;10.366;2022-11-30T08:23:34;5.00;99.90
20432;DHT22;10375;49.136;10.366;2022-11-30T08:26:10;5.00;99.90
20432;DHT22;10375;49.136;10.366;2022-11-30T08:28:38;5.00;99.90
20432;DHT22;10375;49.136;10.366;2022-11-30T08:31:08;4.90;99.90
20432;DHT22;10375;49.136;10.366;2022-11-30T08:33:36;4.90;99.90
20432;DHT22;10375;49.136;10.366;2022-11-30T08:36:23;4.90;99.90
20432;DHT22;10375;49.136;10.366;2022-11-30T08:38:50;4.90;99.90
20432;DHT22;10375;49.136;10.366;2022-11-30T08:41:20;4.90;99.90
20432;DHT22;10375;49.136;10.366;2022-11-30T08:43:48;5.00;99.90
20432;DHT22;10375;49.136;10.366;2022-11-30T08:46:17;5.00;99.90
20432;DHT22;10375;49.136;10.366;2022-11-30T08:49:04;4.90;99.90
20432;DHT22;10375;49.136;10.366;2022-11-30T08:51:49;5.00;99.90
20432;DHT22;10375;49.136;10.366;2022-11-30T08:54:36;4.90;99.90
20432;DHT22;10375;49.136;10.366;2022-11-30T08:57:05;4.90;99.90
20432;DHT22;10375;49.136;10.366;2022-11-30T08:59:32;4.90;99.90
20432;DHT22;10375;49.136;10.366;2022-11-30T09:01:59;4.90;99.90
20432;DHT22;10375;49.136;10.366;2022-11-30T09:04:26;5.00;99.90
20432;DHT22;10375;49.136;10.366;2022-11-30T09:06:53;4.90;99.90
20432;DHT22;10375;49.136;10.366;2022-11-30T09:09:25;5.00;99.90
20432;DHT22;10375;49.136;10.366;2022-11-30T09:11:52;5.00;99.90
20432;DHT22;10375;49.136;10.366;2022-11-30T09:14:19;5.10;99.90
20432;DHT22;10375;49.136;10.366;2022-11-30T09:16:46;5.10;99.90
20432;DHT22;10375;49.136;10.366;2022-11-30T09:19:13;5.10;99.90
20432;DHT22;10375;49.136;10.366;2022-11-30T09:21:40;5.10;99.90
20432;DHT22;10375;49.136;10.366;2022-11-30T09:24:12;5.10;99.90
20432;DHT22;10375;49.136;10.366;2022-11-30T09:26:39;5.10;99.90
20432;DHT22;10375;49.136;10.366;2022-11-30T09:29:06;5.10;99.90
20432;DHT22;10375;49.136;10.366;2022-11-30T09:31:33;5.10;99.90
20432;DHT22;10375;49.136;10.366;2022-11-30T09:34:00;5.10;99.90
20432;DHT22;10375;49.136;10.366;2022-11-30T09:36:27;5.10;99.90
20432;DHT22;10375;49.136;10.366;2022-11-30T09:38:56;5.20;99.90
20432;DHT22;10375;49.136;10.366;2022-11-30T09:49:46;5.30;99.90
20432;DHT22;10375;49.136;10.366;2022-11-30T09:52:23;5.30;99.90
20432;DHT22;10375;49.136;10.366;2022-11-30T09:54:51;5.40;99.90
20432;DHT22;10375;49.136;10.366;2022-11-30T10:00:15;5.30;99.90
20432;DHT22;10375;49.136;10.366;2022-11-30T10:02:43;5.30;99.90
20432;DHT22;10375;49.136;10.366;2022-11-30T10:05:21;5.30;99.90
20432;DHT22;10375;49.136;10.366;2022-11-30T10:10:45;5.30;99.90
20432;DHT22;10375;49.136;10.366;2022-11-30T10:16:35;5.40;99.90
20432;DHT22;10375;49.136;10.366;2022-11-30T10:22:30;5.40;99.90
20432;DHT22;10375;49.136;10.366;2022-11-30T10:25:23;5.40;99.90
20432;DHT22;10375;49.136;10.366;2022-11-30T10:27:54;5.30;99.90
20432;DHT22;10375;49.136;10.366;2022-11-30T10:30:46;5.30;99.90
20432;DHT22;10375;49.136;10.366;2022-11-30T10:33:26;5.30;99.90
20432;DHT22;10375;49.136;10.366;2022-11-30T10:36:10;5.30;99.90
20432;DHT22;10375;49.136;10.366;2022-11-30T10:38:43;5.30;99.90
20432;DHT22;10375;49.136;10.366;2022-11-30T10:41:32;5.20;99.90
20432;DHT22;10375;49.136;10.366;2022-11-30T10:44:20;5.30;99.90
20432;DHT22;10375;49.136;10.366;2022-11-30T10:46:59;5.30;99.90
20432;DHT22;10375;49.136;10.366;2022-11-30T10:49:28;5.30;99.90
20432;DHT22;10375;49.136;10.366;2022-11-30T10:52:00;5.40;99.90
20432;DHT22;10375;49.136;10.366;2022-11-30T10:54:29;5.40;99.90
20432;DHT22;10375;49.136;10.366;2022-11-30T10:56:58;5.40;99.90
20432;DHT22;10375;49.136;10.366;2022-11-30T10:59:46;5.40;99.90
20432;DHT22;10375;49.136;10.366;2022-11-30T11:02:46;5.40;99.90
20432;DHT22;10375;49.136;10.366;2022-11-30T11:05:26;5.20;99.90
20432;DHT22;10375;49.136;10.366;2022-11-30T11:08:18;5.20;99.90
20432;DHT22;10375;49.136;10.366;2022-11-30T11:10:50;5.10;99.90
20432;DHT22;10375;49.136;10.366;2022-11-30T11:13:38;5.00;99.90
20432;DHT22;10375;49.136;10.366;2022-11-30T11:16:11;5.10;99.90
20432;DHT22;10375;49.136;10.366;2022-11-30T11:18:59;5.10;99.90
20432;DHT22;10375;49.136;10.366;2022-11-30T11:21:26;5.00;99.90
20432;DHT22;10375;49.136;10.366;2022-11-30T11:23:54;5.00;99.90
20432;DHT22;10375;49.136;10.366;2022-11-30T11:26:28;5.00;99.90
20432;DHT22;10375;49.136;10.366;2022-11-30T11:28:56;5.00;99.90
20432;DHT22;10375;49.136;10.366;2022-11-30T11:31:39;5.00;99.90
20432;DHT22;10375;49.136;10.366;2022-11-30T11:34:31;5.00;99.90
20432;DHT22;10375;49.136;10.366;2022-11-30T11:37:24;5.10;99.90
20432;DHT22;10375;49.136;10.366;2022-11-30T11:42:48;5.10;99.90
20432;DHT22;10375;49.136;10.366;2022-11-30T11:45:20;5.20;99.90
20432;DHT22;10375;49.136;10.366;2022-11-30T11:48:00;5.20;99.90
20432;DHT22;10375;49.136;10.366;2022-11-30T11:50:30;5.20;99.90
20432;DHT22;10375;49.136;10.366;2022-11-30T11:53:20;5.10;99.90
20432;DHT22;10375;49.136;10.366;2022-11-30T11:56:19;5.10;99.90
20432;DHT22;10375;49.136;10.366;2022-11-30T11:58:59;5.10;99.90
20432;DHT22;10375;49.136;10.366;2022-11-30T12:01:47;5.20;99.90
20432;DHT22;10375;49.136;10.366;2022-11-30T12:04:44;5.20;99.90
20432;DHT22;10375;49.136;10.366;2022-11-30T12:07:36;5.10;99.90
20432;DHT22;10375;49.136;10.366;2022-11-30T12:12:47;5.20;99.90
20432;DHT22;10375;49.136;10.366;2022-11-30T12:15:30;5.20;99.90
20432;DHT22;10375;49.136;10.366;2022-11-30T12:18:20;5.20;99.90
20432;DHT22;10375;49.136;10.366;2022-11-30T12:21:00;5.20;99.90
20432;DHT22;10375;49.136;10.366;2022-11-30T12:23:33;5.20;99.90
20432;DHT22;10375;49.136;10.366;2022-11-30T12:29:19;5.20;99.90
20432;DHT22;10375;49.136;10.366;2022-11-30T12:35:00;5.10;99.90
20432;DHT22;10375;49.136;10.366;2022-11-30T12:37:42;5.20;99.90
20432;DHT22;10375;49.136;10.366;2022-11-30T12:45:42;5.20;99.90
20432;DHT22;10375;49.136;10.366;2022-11-30T12:51:20;5.10;99.90
20432;DHT22;10375;49.136;10.366;2022-11-30T12:54:16;5.10;99.90
20432;DHT22;10375;49.136;10.366;2022-11-30T12:56:51;4.90;99.90
20432;DHT22;10375;49.136;10.366;2022-11-30T12:59:40;4.80;99.90
20432;DHT22;10375;49.136;10.366;2022-11-30T13:02:47;4.80;99.90
20432;DHT22;10375;49.136;10.366;2022-11-30T13:05:25;4.80;99.90
20432;DHT22;10375;49.136;10.366;2022-11-30T13:08:06;4.90;99.90
20432;DHT22;10375;49.136;10.366;2022-11-30T13:10:43;4.90;99.90
20432;DHT22;10375;49.136;10.366;2022-11-30T13:13:15;4.90;99.90
20432;DHT22;10375;49.136;10.366;2022-11-30T13:15:44;4.90;99.90
20432;DHT22;10375;49.136;10.366;2022-11-30T13:18:17;4.80;99.90
20432;DHT22;10375;49.136;10.366;2022-11-30T13:21:04;4.90;99.90
20432;DHT22;10375;49.136;10.366;2022-11-30T13:31:53;4.70;99.90
20432;DHT22;10375;49.136;10.366;2022-11-30T13:34:30;4.70;99.90
20432;DHT22;10375;49.136;10.366;2022-11-30T13:39:54;4.50;99.90
20432;DHT22;10375;49.136;10.366;2022-11-30T13:48:14;4.40;99.90
20432;DHT22;10375;49.136;10.366;2022-11-30T13:50:45;4.40;99.90
20432;DHT22;10375;49.136;10.366;2022-11-30T13:53:27;4.40;99.90
20432;DHT22;10375;49.136;10.366;2022-11-30T13:56:02;4.30;99.90
20432;DHT22;10375;49.136;10.366;2022-11-30T13:58:29;4.30;99.90
20432;DHT22;10375;49.136;10.366;2022-11-30T14:03:29;4.30;99.90
20432;DHT22;10375;49.136;10.366;2022-11-30T14:05:59;4.20;99.90
20432;DHT22;10375;49.136;10.366;2022-11-30T14:08:30;4.20;99.90
20432;DHT22;10375;49.136;10.366;2022-11-30T14:13:43;4.20;99.90
20432;DHT22;10375;49.136;10.366;2022-11-30T14:16:23;4.20;99.90
20432;DHT22;10375;49.136;10.366;2022-11-30T14:18:55;4.20;99.90
20432;DHT22;10375;49.136;10.366;2022-11-30T14:24:44;4.20;99.90
20432;DHT22;10375;49.136;10.366;2022-11-30T14:26:51;4.20;99.90
20432;DHT22;10375;49.136;10.366;2022-11-30T14:29:22;4.10;99.90
20432;DHT22;10375;49.136;10.366;2022-11-30T14:32:01;4.10;99.90
20432;DHT22;10375;49.136;10.366;2022-11-30T14:34:42;4.00;99.90
20432;DHT22;10375;49.136;10.366;2022-11-30T14:37:21;3.90;99.90
20432;DHT22;10375;49.136;10.366;2022-11-30T14:39:49;3.90;99.90
20432;DHT22;10375;49.136;10.366;2022-11-30T14:42:28;4.00;99.90
20432;DHT22;10375;49.136;10.366;2022-11-30T14:44:56;4.00;99.90
20432;DHT22;10375;49.136;10.366;2022-11-30T14:47:31;4.00;99.90
20432;DHT22;10375;49.136;10.366;2022-11-30T14:50:01;3.90;99.90
20432;DHT22;10375;49.136;10.366;2022-11-30T14:57:49;3.90;99.90
20432;DHT22;10375;49.136;10.366;2022-11-30T15:00:19;3.80;99.90
20432;DHT22;10375;49.136;10.366;2022-11-30T15:02:48;3.80;99.90
20432;DHT22;10375;49.136;10.366;2022-11-30T15:05:20;3.80;99.90
20432;DHT22;10375;49.136;10.366;2022-11-30T15:07:48;3.70;99.90
20432;DHT22;10375;49.136;10.366;2022-11-30T15:10:30;3.70;99.90
20432;DHT22;10375;49.136;10.366;2022-11-30T15:12:59;3.70;99.90
20432;DHT22;10375;49.136;10.366;2022-11-30T15:15:27;3.70;99.90
20432;DHT22;10375;49.136;10.366;2022-11-30T15:18:14;3.50;99.90
20432;DHT22;10375;49.136;10.366;2022-11-30T15:23:19;3.40;99.90
20432;DHT22;10375;49.136;10.366;2022-11-30T15:25:48;3.40;99.90
20432;DHT22;10375;49.136;10.366;2022-11-30T15:28:23;3.30;99.90
20432;DHT22;10375;49.136;10.366;2022-11-30T15:30:55;3.30;99.90
20432;DHT22;10375;49.136;10.366;2022-11-30T15:33:36;3.30;99.90
20432;DHT22;10375;49.136;10.366;2022-11-30T15:36:06;3.30;99.90
20432;DHT22;10375;49.136;10.366;2022-11-30T15:39:01;3.30;99.90
20432;DHT22;10375;49.136;10.366;2022-11-30T15:41:29;3.20;99.90
20432;DHT22;10375;49.136;10.366;2022-11-30T15:43:57;3.20;99.90
20432;DHT22;10375;49.136;10.366;2022-11-30T15:49:18;3.10;99.90
20432;DHT22;10375;49.136;10.366;2022-11-30T15:52:19;3.10;99.90
20432;DHT22;10375;49.136;10.366;2022-11-30T15:54:50;3.20;99.90
20432;DHT22;10375;49.136;10.366;2022-11-30T15:57:22;3.20;99.90
20432;DHT22;10375;49.136;10.366;2022-11-30T16:02:34;3.10;99.90
20432;DHT22;10375;49.136;10.366;2022-11-30T16:05:03;3.10;99.90
20432;DHT22;10375;49.136;10.366;2022-11-30T16:07:48;3.10;99.90
20432;DHT22;10375;49.136;10.366;2022-11-30T16:12:50;3.10;99.90
20432;DHT22;10375;49.136;10.366;2022-11-30T16:17:50;2.90;99.90
20432;DHT22;10375;49.136;10.366;2022-11-30T16:20:18;2.90;99.90
20432;DHT22;10375;49.136;10.366;2022-11-30T16:22:47;2.90;99.90
20432;DHT22;10375;49.136;10.366;2022-11-30T16:25:17;3.00;99.90
20432;DHT22;10375;49.136;10.366;2022-11-30T16:27:45;3.00;99.90
20432;DHT22;10375;49.136;10.366;2022-11-30T16:30:23;3.10;99.90
20432;DHT22;10375;49.136;10.366;2022-11-30T16:32:50;3.10;99.90
20432;DHT22;10375;49.136;10.366;2022-11-30T16:35:36;3.00;99.90
20432;DHT22;10375;49.136;10.366;2022-11-30T16:38:04;3.00;99.90
20432;DHT22;10375;49.136;10.366;2022-11-30T16:40:32;3.00;99.90
20432;DHT22;10375;49.136;10.366;2022-11-30T16:43:04;3.00;99.90
20432;DHT22;10375;49.136;10.366;2022-11-30T16:45:35;3.00;99.90
20432;DHT22;10375;49.136;10.366;2022-11-30T16:48:04;3.00;99.90
20432;DHT22;10375;49.136;10.366;2022-11-30T16:50:31;3.10;99.90
20432;DHT22;10375;49.136;10.366;2022-11-30T16:53:01;3.00;99.90
20432;DHT22;10375;49.136;10.366;2022-11-30T16:55:30;3.10;99.90
20432;DHT22;10375;49.136;10.366;2022-11-30T16:58:00;3.10;99.90
20432;DHT22;10375;49.136;10.366;2022-11-30T17:00:27;3.10;99.90
20432;DHT22;10375;49.136;10.366;2022-11-30T17:02:58;3.00;99.90
20432;DHT22;10375;49.136;10.366;2022-11-30T17:05:26;3.00;99.90
20432;DHT22;10375;49.136;10.366;2022-11-30T17:07:53;3.00;99.90
20432;DHT22;10375;49.136;10.366;2022-11-30T17:10:21;3.00;99.90
20432;DHT22;10375;49.136;10.366;2022-11-30T17:12:48;3.00;99.90
20432;DHT22;10375;49.136;10.366;2022-11-30T17:15:18;3.00;99.90
20432;DHT22;10375;49.136;10.366;2022-11-30T17:17:45;2.90;99.90
20432;DHT22;10375;49.136;10.366;2022-11-30T17:20:13;3.00;99.90
20432;DHT22;10375;49.136;10.366;2022-11-30T17:22:41;3.00;99.90
20432;DHT22;10375;49.136;10.366;2022-11-30T17:25:18;2.90;99.90
20432;DHT22;10375;49.136;10.366;2022-11-30T17:27:46;2.90;99.90
20432;DHT22;10375;49.136;10.366;2022-11-30T17:30:17;2.90;99.90
20432;DHT22;10375;49.136;10.366;2022-11-30T17:32:44;3.00;99.90
20432;DHT22;10375;49.136;10.366;2022-11-30T17:35:11;3.00;99.90
20432;DHT22;10375;49.136;10.366;2022-11-30T17:37:38;3.00;99.90
20432;DHT22;10375;49.136;10.366;2022-11-30T17:40:06;3.00;99.90
20432;DHT22;10375;49.136;10.366;2022-11-30T17:42:34;3.00;99.90